Terminal Aerodrome Forecast
Issued by NWS

Home | Current Version | Previous Version | Text Only | Print | Product List | Glossary On
Versions: 1 2 3 4 5 6 7 8 9 10 11 12 13 14
000
FTUS45 KSLC 182003 AAA
TAFBCE
TAF AMD
KBCE 182003Z 1820/1918 21014G24KT P6SM SCT200
     FM190900 18018G27KT P6SM VCSH SCT040 BKN080
     FM191400 25018G28KT 1SM -SN BR SCT007 BKN015=

USA.gov is the U.S. government's official web portal to all federal, state and local government web resources and services.